Etty, Kentucky
Current Conditions -  °F | °C
As of 12:15 AM on Thursday 27 Nov 2014 (Local Time) from KPBX Reporting Station
Overcast Overcast  
Wind Chill: 36°   Ceiling: 9500
Heat Index: 36°   Visibility: 10mi
Dew Point: 30°   Wind: 3mph
Humidity: 78%   Direction: 20°NNE
Pressure: 29.97"   Gusts: NA
Location:  37.3022°N, 82.6547°W
Report Text: KPBX 270515Z AUTO 02003KT 10SM SCT070 OVC095 02/M01 A2997 RMK AO2 T00221012
Loading
Personal Weather Stations






























Interactive Weather Map New forecast layout! Learn more

10-Day Weather Forecast

Advertisements
Track Severe Weather on mobile